sensor_id;sensor_type;location;lat;lon;timestamp;temperature;humidity
20231;DHT22;10274;49.022;9.338;2023-04-01T00:01:26;9.90;1.00
20231;DHT22;10274;49.022;9.338;2023-04-01T00:03:52;9.90;99.90
20231;DHT22;10274;49.022;9.338;2023-04-01T00:06:20;9.80;1.00
20231;DHT22;10274;49.022;9.338;2023-04-01T00:08:46;9.90;99.90
20231;DHT22;10274;49.022;9.338;2023-04-01T00:11:15;9.90;99.90
20231;DHT22;10274;49.022;9.338;2023-04-01T00:13:42;9.90;1.00
20231;DHT22;10274;49.022;9.338;2023-04-01T00:16:09;9.80;1.00
20231;DHT22;10274;49.022;9.338;2023-04-01T00:18:37;9.80;1.00
20231;DHT22;10274;49.022;9.338;2023-04-01T00:21:05;9.90;99.90
20231;DHT22;10274;49.022;9.338;2023-04-01T00:23:32;9.90;99.90
20231;DHT22;10274;49.022;9.338;2023-04-01T00:25:59;9.90;99.90
20231;DHT22;10274;49.022;9.338;2023-04-01T00:28:28;9.80;99.90
20231;DHT22;10274;49.022;9.338;2023-04-01T00:30:55;9.80;99.90
20231;DHT22;10274;49.022;9.338;2023-04-01T00:33:21;9.80;1.00
20231;DHT22;10274;49.022;9.338;2023-04-01T00:35:48;9.90;99.90
20231;DHT22;10274;49.022;9.338;2023-04-01T00:38:15;9.80;1.00
20231;DHT22;10274;49.022;9.338;2023-04-01T00:40:46;9.80;99.90
20231;DHT22;10274;49.022;9.338;2023-04-01T00:43:16;9.80;99.90
20231;DHT22;10274;49.022;9.338;2023-04-01T00:45:46;9.80;99.90
20231;DHT22;10274;49.022;9.338;2023-04-01T00:48:15;9.70;1.00
20231;DHT22;10274;49.022;9.338;2023-04-01T00:50:45;9.70;1.00
20231;DHT22;10274;49.022;9.338;2023-04-01T00:53:14;9.70;1.00
20231;DHT22;10274;49.022;9.338;2023-04-01T00:55:46;9.70;1.00
20231;DHT22;10274;49.022;9.338;2023-04-01T00:58:17;9.70;1.00
20231;DHT22;10274;49.022;9.338;2023-04-01T01:00:47;9.70;1.00
20231;DHT22;10274;49.022;9.338;2023-04-01T01:03:16;9.70;1.00
20231;DHT22;10274;49.022;9.338;2023-04-01T01:05:55;9.80;99.90
20231;DHT22;10274;49.022;9.338;2023-04-01T01:08:31;9.70;99.90
20231;DHT22;10274;49.022;9.338;2023-04-01T01:11:03;9.70;1.00
20231;DHT22;10274;49.022;9.338;2023-04-01T01:13:36;9.70;99.90
20231;DHT22;10274;49.022;9.338;2023-04-01T01:16:13;9.70;99.90
20231;DHT22;10274;49.022;9.338;2023-04-01T01:18:48;9.80;99.90
20231;DHT22;10274;49.022;9.338;2023-04-01T01:21:42;9.80;99.90
20231;DHT22;10274;49.022;9.338;2023-04-01T01:24:25;9.90;99.90
20231;DHT22;10274;49.022;9.338;2023-04-01T01:26:59;9.90;99.90
20231;DHT22;10274;49.022;9.338;2023-04-01T01:29:49;9.90;99.90
20231;DHT22;10274;49.022;9.338;2023-04-01T01:32:33;9.90;99.90
20231;DHT22;10274;49.022;9.338;2023-04-01T01:35:14;10.00;99.90
20231;DHT22;10274;49.022;9.338;2023-04-01T01:37:43;10.00;99.90
20231;DHT22;10274;49.022;9.338;2023-04-01T01:40:13;10.00;99.90
20231;DHT22;10274;49.022;9.338;2023-04-01T01:42:46;10.00;99.90
20231;DHT22;10274;49.022;9.338;2023-04-01T01:45:16;10.00;99.90
20231;DHT22;10274;49.022;9.338;2023-04-01T01:47:45;10.00;99.90
20231;DHT22;10274;49.022;9.338;2023-04-01T01:50:14;9.90;99.90
20231;DHT22;10274;49.022;9.338;2023-04-01T01:52:41;9.90;99.90
20231;DHT22;10274;49.022;9.338;2023-04-01T01:55:24;10.00;99.90
20231;DHT22;10274;49.022;9.338;2023-04-01T01:57:52;10.00;99.90
20231;DHT22;10274;49.022;9.338;2023-04-01T02:00:20;9.90;99.90
20231;DHT22;10274;49.022;9.338;2023-04-01T02:02:48;9.90;99.90
20231;DHT22;10274;49.022;9.338;2023-04-01T02:05:20;10.00;99.90
20231;DHT22;10274;49.022;9.338;2023-04-01T02:07:53;10.00;99.90
20231;DHT22;10274;49.022;9.338;2023-04-01T02:10:25;10.00;63.90
20231;DHT22;10274;49.022;9.338;2023-04-01T02:12:53;10.00;51.90
20231;DHT22;10274;49.022;9.338;2023-04-01T02:15:24;10.00;99.90
20231;DHT22;10274;49.022;9.338;2023-04-01T02:17:52;10.10;1.00
20231;DHT22;10274;49.022;9.338;2023-04-01T02:20:24;10.00;21.10
20231;DHT22;10274;49.022;9.338;2023-04-01T02:22:53;10.10;1.00
20231;DHT22;10274;49.022;9.338;2023-04-01T02:25:23;10.10;1.00
20231;DHT22;10274;49.022;9.338;2023-04-01T02:27:51;10.10;1.00
20231;DHT22;10274;49.022;9.338;2023-04-01T02:30:19;10.10;1.00
20231;DHT22;10274;49.022;9.338;2023-04-01T02:32:47;10.10;1.00
20231;DHT22;10274;49.022;9.338;2023-04-01T02:35:16;10.00;99.90
20231;DHT22;10274;49.022;9.338;2023-04-01T02:37:45;10.00;99.90
20231;DHT22;10274;49.022;9.338;2023-04-01T02:40:15;9.90;99.90
20231;DHT22;10274;49.022;9.338;2023-04-01T02:42:42;9.90;99.90
20231;DHT22;10274;49.022;9.338;2023-04-01T02:45:10;10.00;99.90
20231;DHT22;10274;49.022;9.338;2023-04-01T02:47:37;9.90;99.90
20231;DHT22;10274;49.022;9.338;2023-04-01T02:50:05;9.80;99.90
20231;DHT22;10274;49.022;9.338;2023-04-01T02:52:32;9.80;1.00
20231;DHT22;10274;49.022;9.338;2023-04-01T02:55:00;9.70;1.00
20231;DHT22;10274;49.022;9.338;2023-04-01T02:57:26;9.80;1.00
20231;DHT22;10274;49.022;9.338;2023-04-01T02:59:53;9.70;1.00
20231;DHT22;10274;49.022;9.338;2023-04-01T03:02:20;9.60;1.00
20231;DHT22;10274;49.022;9.338;2023-04-01T03:04:47;9.70;1.00
20231;DHT22;10274;49.022;9.338;2023-04-01T03:07:13;9.70;1.00
20231;DHT22;10274;49.022;9.338;2023-04-01T03:09:40;9.70;1.00
20231;DHT22;10274;49.022;9.338;2023-04-01T03:12:08;9.70;1.00
20231;DHT22;10274;49.022;9.338;2023-04-01T03:14:35;9.60;1.00
20231;DHT22;10274;49.022;9.338;2023-04-01T03:17:01;9.80;99.90
20231;DHT22;10274;49.022;9.338;2023-04-01T03:19:28;9.80;99.90
20231;DHT22;10274;49.022;9.338;2023-04-01T03:21:55;9.80;99.90
20231;DHT22;10274;49.022;9.338;2023-04-01T03:24:21;9.70;99.90
20231;DHT22;10274;49.022;9.338;2023-04-01T03:26:48;9.80;99.90
20231;DHT22;10274;49.022;9.338;2023-04-01T03:29:16;9.70;99.90
20231;DHT22;10274;49.022;9.338;2023-04-01T03:31:43;9.80;99.90
20231;DHT22;10274;49.022;9.338;2023-04-01T03:34:10;9.90;1.00
20231;DHT22;10274;49.022;9.338;2023-04-01T03:36:37;9.80;1.00
20231;DHT22;10274;49.022;9.338;2023-04-01T03:39:03;9.90;1.00
20231;DHT22;10274;49.022;9.338;2023-04-01T03:41:30;9.90;1.00
20231;DHT22;10274;49.022;9.338;2023-04-01T03:43:57;9.90;99.90
20231;DHT22;10274;49.022;9.338;2023-04-01T03:46:25;9.90;99.90
20231;DHT22;10274;49.022;9.338;2023-04-01T03:48:52;9.80;99.90
20231;DHT22;10274;49.022;9.338;2023-04-01T03:51:18;9.60;1.00
20231;DHT22;10274;49.022;9.338;2023-04-01T03:53:45;9.60;1.00
20231;DHT22;10274;49.022;9.338;2023-04-01T03:56:12;9.50;57.90
20231;DHT22;10274;49.022;9.338;2023-04-01T03:58:39;9.60;1.00
20231;DHT22;10274;49.022;9.338;2023-04-01T04:01:13;9.60;1.00
20231;DHT22;10274;49.022;9.338;2023-04-01T04:03:42;9.60;1.00
20231;DHT22;10274;49.022;9.338;2023-04-01T04:06:11;9.60;1.00
20231;DHT22;10274;49.022;9.338;2023-04-01T04:08:38;9.60;1.00
20231;DHT22;10274;49.022;9.338;2023-04-01T04:11:06;9.50;99.90
20231;DHT22;10274;49.022;9.338;2023-04-01T04:13:32;9.40;99.90
20231;DHT22;10274;49.022;9.338;2023-04-01T04:15:59;9.30;1.00
20231;DHT22;10274;49.022;9.338;2023-04-01T04:18:26;9.20;1.00
20231;DHT22;10274;49.022;9.338;2023-04-01T04:20:54;9.20;1.00
20231;DHT22;10274;49.022;9.338;2023-04-01T04:23:21;9.20;1.00
20231;DHT22;10274;49.022;9.338;2023-04-01T04:25:56;9.10;1.00
20231;DHT22;10274;49.022;9.338;2023-04-01T04:28:23;9.20;1.00
20231;DHT22;10274;49.022;9.338;2023-04-01T04:30:50;9.10;1.00
20231;DHT22;10274;49.022;9.338;2023-04-01T04:33:16;9.10;1.00
20231;DHT22;10274;49.022;9.338;2023-04-01T04:35:43;9.10;1.00
20231;DHT22;10274;49.022;9.338;2023-04-01T04:38:11;9.10;1.00
20231;DHT22;10274;49.022;9.338;2023-04-01T04:40:38;9.10;1.00
20231;DHT22;10274;49.022;9.338;2023-04-01T04:43:05;9.10;1.00
20231;DHT22;10274;49.022;9.338;2023-04-01T04:45:32;9.10;1.00
20231;DHT22;10274;49.022;9.338;2023-04-01T04:47:59;9.10;1.00
20231;DHT22;10274;49.022;9.338;2023-04-01T04:50:25;9.10;1.00
20231;DHT22;10274;49.022;9.338;2023-04-01T04:52:52;9.10;1.00
20231;DHT22;10274;49.022;9.338;2023-04-01T04:55:20;9.10;1.00
20231;DHT22;10274;49.022;9.338;2023-04-01T04:57:47;9.20;1.00
20231;DHT22;10274;49.022;9.338;2023-04-01T05:00:14;9.20;1.00
20231;DHT22;10274;49.022;9.338;2023-04-01T05:02:41;9.20;1.00
20231;DHT22;10274;49.022;9.338;2023-04-01T05:05:08;9.20;1.00
20231;DHT22;10274;49.022;9.338;2023-04-01T05:07:35;9.20;1.00
20231;DHT22;10274;49.022;9.338;2023-04-01T05:10:03;9.20;1.00
20231;DHT22;10274;49.022;9.338;2023-04-01T05:12:31;9.30;99.90
20231;DHT22;10274;49.022;9.338;2023-04-01T05:15:02;9.30;99.90
20231;DHT22;10274;49.022;9.338;2023-04-01T05:17:28;9.40;99.90
20231;DHT22;10274;49.022;9.338;2023-04-01T05:19:55;9.40;99.90
20231;DHT22;10274;49.022;9.338;2023-04-01T05:22:22;9.40;99.90
20231;DHT22;10274;49.022;9.338;2023-04-01T05:24:48;9.40;99.90
20231;DHT22;10274;49.022;9.338;2023-04-01T05:27:15;9.40;99.90
20231;DHT22;10274;49.022;9.338;2023-04-01T05:29:43;9.50;99.90
20231;DHT22;10274;49.022;9.338;2023-04-01T05:32:10;9.40;99.90
20231;DHT22;10274;49.022;9.338;2023-04-01T05:34:37;9.40;99.90
20231;DHT22;10274;49.022;9.338;2023-04-01T05:37:03;9.40;99.90
20231;DHT22;10274;49.022;9.338;2023-04-01T05:39:30;9.50;1.00
20231;DHT22;10274;49.022;9.338;2023-04-01T05:41:57;9.50;16.30
20231;DHT22;10274;49.022;9.338;2023-04-01T05:44:23;9.40;99.90
20231;DHT22;10274;49.022;9.338;2023-04-01T05:46:51;9.50;11.60
20231;DHT22;10274;49.022;9.338;2023-04-01T05:49:18;9.50;99.90
20231;DHT22;10274;49.022;9.338;2023-04-01T05:51:45;9.40;30.10
20231;DHT22;10274;49.022;9.338;2023-04-01T05:54:12;9.40;99.90
20231;DHT22;10274;49.022;9.338;2023-04-01T05:56:38;9.40;99.90
20231;DHT22;10274;49.022;9.338;2023-04-01T05:59:05;9.40;99.90
20231;DHT22;10274;49.022;9.338;2023-04-01T06:01:32;9.30;99.90
20231;DHT22;10274;49.022;9.338;2023-04-01T06:04:00;9.30;99.90
20231;DHT22;10274;49.022;9.338;2023-04-01T06:06:28;9.20;99.90
20231;DHT22;10274;49.022;9.338;2023-04-01T06:08:56;9.30;99.90
20231;DHT22;10274;49.022;9.338;2023-04-01T06:11:31;9.20;99.90
20231;DHT22;10274;49.022;9.338;2023-04-01T06:14:12;9.20;99.90
20231;DHT22;10274;49.022;9.338;2023-04-01T06:16:56;9.30;99.90
20231;DHT22;10274;49.022;9.338;2023-04-01T06:19:34;9.20;99.90
20231;DHT22;10274;49.022;9.338;2023-04-01T06:22:32;9.30;99.90
20231;DHT22;10274;49.022;9.338;2023-04-01T06:25:17;9.30;99.90
20231;DHT22;10274;49.022;9.338;2023-04-01T06:27:55;9.30;99.90
20231;DHT22;10274;49.022;9.338;2023-04-01T06:30:37;9.30;99.90
20231;DHT22;10274;49.022;9.338;2023-04-01T06:33:29;9.30;99.90
20231;DHT22;10274;49.022;9.338;2023-04-01T06:36:18;9.40;99.90
20231;DHT22;10274;49.022;9.338;2023-04-01T06:39:02;9.40;99.90
20231;DHT22;10274;49.022;9.338;2023-04-01T06:41:59;9.50;99.90
20231;DHT22;10274;49.022;9.338;2023-04-01T06:44:36;9.50;99.90
20231;DHT22;10274;49.022;9.338;2023-04-01T06:47:22;9.50;99.90
20231;DHT22;10274;49.022;9.338;2023-04-01T06:49:58;9.50;99.90
20231;DHT22;10274;49.022;9.338;2023-04-01T06:52:37;9.50;99.90
20231;DHT22;10274;49.022;9.338;2023-04-01T06:55:21;9.50;99.90
20231;DHT22;10274;49.022;9.338;2023-04-01T06:57:53;9.60;99.90
20231;DHT22;10274;49.022;9.338;2023-04-01T07:00:27;9.60;1.00
20231;DHT22;10274;49.022;9.338;2023-04-01T07:03:02;9.60;99.90
20231;DHT22;10274;49.022;9.338;2023-04-01T07:05:32;9.60;99.90
20231;DHT22;10274;49.022;9.338;2023-04-01T07:08:04;9.60;99.90
20231;DHT22;10274;49.022;9.338;2023-04-01T07:10:38;9.70;99.90
20231;DHT22;10274;49.022;9.338;2023-04-01T07:13:15;9.70;99.90
20231;DHT22;10274;49.022;9.338;2023-04-01T07:15:54;9.70;28.20
20231;DHT22;10274;49.022;9.338;2023-04-01T07:18:28;9.70;96.70
20231;DHT22;10274;49.022;9.338;2023-04-01T07:20:57;9.70;99.90
20231;DHT22;10274;49.022;9.338;2023-04-01T07:23:29;9.80;1.00
20231;DHT22;10274;49.022;9.338;2023-04-01T07:26:00;9.80;77.30
20231;DHT22;10274;49.022;9.338;2023-04-01T07:28:31;9.80;1.00
20231;DHT22;10274;49.022;9.338;2023-04-01T07:31:09;9.80;1.00
20231;DHT22;10274;49.022;9.338;2023-04-01T07:33:44;9.80;99.90
20231;DHT22;10274;49.022;9.338;2023-04-01T07:36:17;9.80;1.00
20231;DHT22;10274;49.022;9.338;2023-04-01T07:38:58;9.90;1.00
20231;DHT22;10274;49.022;9.338;2023-04-01T07:41:36;9.90;1.00
20231;DHT22;10274;49.022;9.338;2023-04-01T07:44:13;9.90;1.00
20231;DHT22;10274;49.022;9.338;2023-04-01T07:47:11;9.90;1.00
20231;DHT22;10274;49.022;9.338;2023-04-01T07:49:49;9.90;1.00
20231;DHT22;10274;49.022;9.338;2023-04-01T07:52:24;9.90;1.00
20231;DHT22;10274;49.022;9.338;2023-04-01T07:54:59;9.90;1.00
20231;DHT22;10274;49.022;9.338;2023-04-01T07:57:34;10.00;1.00
20231;DHT22;10274;49.022;9.338;2023-04-01T08:00:07;9.90;1.00
20231;DHT22;10274;49.022;9.338;2023-04-01T08:02:44;10.00;1.00
20231;DHT22;10274;49.022;9.338;2023-04-01T08:05:21;10.00;1.00
20231;DHT22;10274;49.022;9.338;2023-04-01T08:07:56;10.00;1.00
20231;DHT22;10274;49.022;9.338;2023-04-01T08:10:34;10.00;1.00
20231;DHT22;10274;49.022;9.338;2023-04-01T08:13:09;10.00;1.00
20231;DHT22;10274;49.022;9.338;2023-04-01T08:15:45;9.90;1.00
20231;DHT22;10274;49.022;9.338;2023-04-01T08:18:21;10.00;1.00
20231;DHT22;10274;49.022;9.338;2023-04-01T08:20:52;10.00;1.00
20231;DHT22;10274;49.022;9.338;2023-04-01T08:23:24;10.00;1.00
20231;DHT22;10274;49.022;9.338;2023-04-01T08:26:00;10.00;36.10
20231;DHT22;10274;49.022;9.338;2023-04-01T08:28:30;10.00;87.60
20231;DHT22;10274;49.022;9.338;2023-04-01T08:31:01;10.00;53.40
20231;DHT22;10274;49.022;9.338;2023-04-01T08:33:30;10.00;99.90
20231;DHT22;10274;49.022;9.338;2023-04-01T08:36:02;9.90;99.90
20231;DHT22;10274;49.022;9.338;2023-04-01T08:38:31;9.80;99.90
20231;DHT22;10274;49.022;9.338;2023-04-01T08:41:07;9.80;1.00
20231;DHT22;10274;49.022;9.338;2023-04-01T08:44:04;9.70;1.00
20231;DHT22;10274;49.022;9.338;2023-04-01T08:47:06;9.60;1.00
20231;DHT22;10274;49.022;9.338;2023-04-01T08:52:36;9.50;1.00
20231;DHT22;10274;49.022;9.338;2023-04-01T08:55:30;9.40;1.00
20231;DHT22;10274;49.022;9.338;2023-04-01T08:58:17;9.40;1.00
20231;DHT22;10274;49.022;9.338;2023-04-01T09:00:49;9.30;1.00
20231;DHT22;10274;49.022;9.338;2023-04-01T09:03:46;9.40;1.00
20231;DHT22;10274;49.022;9.338;2023-04-01T09:06:44;9.40;1.00
20231;DHT22;10274;49.022;9.338;2023-04-01T09:09:45;9.40;1.00
20231;DHT22;10274;49.022;9.338;2023-04-01T09:12:28;9.30;1.00
20231;DHT22;10274;49.022;9.338;2023-04-01T09:21:22;9.20;1.00
20231;DHT22;10274;49.022;9.338;2023-04-01T09:27:13;9.20;1.00
20231;DHT22;10274;49.022;9.338;2023-04-01T09:33:17;9.30;1.00
20231;DHT22;10274;49.022;9.338;2023-04-01T09:36:03;9.40;1.00
20231;DHT22;10274;49.022;9.338;2023-04-01T09:38:39;9.40;1.00
20231;DHT22;10274;49.022;9.338;2023-04-01T09:41:18;9.40;1.00
20231;DHT22;10274;49.022;9.338;2023-04-01T09:43:58;9.50;1.00
20231;DHT22;10274;49.022;9.338;2023-04-01T09:46:37;9.50;1.00
20231;DHT22;10274;49.022;9.338;2023-04-01T09:49:33;9.50;1.00
20231;DHT22;10274;49.022;9.338;2023-04-01T09:52:14;9.50;1.00
20231;DHT22;10274;49.022;9.338;2023-04-01T09:54:56;9.50;1.00
20231;DHT22;10274;49.022;9.338;2023-04-01T10:04:02;9.60;1.00
20231;DHT22;10274;49.022;9.338;2023-04-01T10:13:03;9.70;1.00
20231;DHT22;10274;49.022;9.338;2023-04-01T10:16:02;9.70;1.00
20231;DHT22;10274;49.022;9.338;2023-04-01T10:19:04;9.70;1.00
20231;DHT22;10274;49.022;9.338;2023-04-01T10:22:04;9.80;1.00
20231;DHT22;10274;49.022;9.338;2023-04-01T10:24:52;9.80;1.00
20231;DHT22;10274;49.022;9.338;2023-04-01T10:27:37;9.80;1.00
20231;DHT22;10274;49.022;9.338;2023-04-01T10:30:40;9.80;1.00
20231;DHT22;10274;49.022;9.338;2023-04-01T10:33:38;9.90;1.00
20231;DHT22;10274;49.022;9.338;2023-04-01T10:36:35;9.80;1.00
20231;DHT22;10274;49.022;9.338;2023-04-01T10:39:28;9.70;1.00
20231;DHT22;10274;49.022;9.338;2023-04-01T10:42:25;9.70;1.00
20231;DHT22;10274;49.022;9.338;2023-04-01T10:48:22;9.60;1.00
20231;DHT22;10274;49.022;9.338;2023-04-01T10:51:11;9.60;1.00
20231;DHT22;10274;49.022;9.338;2023-04-01T10:53:49;9.60;1.00
20231;DHT22;10274;49.022;9.338;2023-04-01T10:56:43;9.60;1.00
20231;DHT22;10274;49.022;9.338;2023-04-01T10:59:34;9.60;1.00
20231;DHT22;10274;49.022;9.338;2023-04-01T11:08:36;9.80;1.00
20231;DHT22;10274;49.022;9.338;2023-04-01T11:11:48;9.90;1.00
20231;DHT22;10274;49.022;9.338;2023-04-01T11:17:52;9.90;1.00
20231;DHT22;10274;49.022;9.338;2023-04-01T11:20:52;10.00;1.00
20231;DHT22;10274;49.022;9.338;2023-04-01T11:23:44;10.00;1.00
20231;DHT22;10274;49.022;9.338;2023-04-01T11:26:28;9.90;1.00
20231;DHT22;10274;49.022;9.338;2023-04-01T11:29:22;9.90;1.00
20231;DHT22;10274;49.022;9.338;2023-04-01T11:31:57;10.00;1.00
20231;DHT22;10274;49.022;9.338;2023-04-01T11:34:43;10.00;1.00
20231;DHT22;10274;49.022;9.338;2023-04-01T11:37:24;10.00;1.00
20231;DHT22;10274;49.022;9.338;2023-04-01T11:40:00;10.00;1.00
20231;DHT22;10274;49.022;9.338;2023-04-01T11:42:38;10.00;1.00
20231;DHT22;10274;49.022;9.338;2023-04-01T11:45:20;10.10;1.00
20231;DHT22;10274;49.022;9.338;2023-04-01T11:51:06;10.20;1.00
20231;DHT22;10274;49.022;9.338;2023-04-01T11:53:44;10.30;1.00
20231;DHT22;10274;49.022;9.338;2023-04-01T11:56:26;10.30;1.00
20231;DHT22;10274;49.022;9.338;2023-04-01T11:59:10;10.30;1.00
20231;DHT22;10274;49.022;9.338;2023-04-01T12:01:54;10.40;1.00
20231;DHT22;10274;49.022;9.338;2023-04-01T12:04:51;10.50;1.00
20231;DHT22;10274;49.022;9.338;2023-04-01T12:07:34;10.50;1.00
20231;DHT22;10274;49.022;9.338;2023-04-01T12:10:15;10.60;1.00
20231;DHT22;10274;49.022;9.338;2023-04-01T12:12:51;10.60;99.90
20231;DHT22;10274;49.022;9.338;2023-04-01T12:15:29;10.60;99.90
20231;DHT22;10274;49.022;9.338;2023-04-01T12:18:04;10.60;99.90
20231;DHT22;10274;49.022;9.338;2023-04-01T12:20:45;10.70;1.00
20231;DHT22;10274;49.022;9.338;2023-04-01T12:23:46;10.60;4.90
20231;DHT22;10274;49.022;9.338;2023-04-01T12:29:48;10.70;1.00
20231;DHT22;10274;49.022;9.338;2023-04-01T12:32:24;10.60;1.00
20231;DHT22;10274;49.022;9.338;2023-04-01T12:35:20;10.60;1.00
20231;DHT22;10274;49.022;9.338;2023-04-01T12:37:57;10.50;99.90
20231;DHT22;10274;49.022;9.338;2023-04-01T12:40:36;10.60;1.00
20231;DHT22;10274;49.022;9.338;2023-04-01T12:43:19;10.60;99.90
20231;DHT22;10274;49.022;9.338;2023-04-01T12:45:56;10.60;1.00
20231;DHT22;10274;49.022;9.338;2023-04-01T12:49:02;10.60;1.00
20231;DHT22;10274;49.022;9.338;2023-04-01T12:51:51;10.60;1.00
20231;DHT22;10274;49.022;9.338;2023-04-01T12:54:42;10.50;1.00
20231;DHT22;10274;49.022;9.338;2023-04-01T12:57:24;10.60;20.70
20231;DHT22;10274;49.022;9.338;2023-04-01T13:00:09;10.60;99.90
20231;DHT22;10274;49.022;9.338;2023-04-01T13:02:50;10.50;99.90
20231;DHT22;10274;49.022;9.338;2023-04-01T13:05:36;10.50;99.90
20231;DHT22;10274;49.022;9.338;2023-04-01T13:08:19;10.50;99.90
20231;DHT22;10274;49.022;9.338;2023-04-01T13:11:08;10.40;1.00
20231;DHT22;10274;49.022;9.338;2023-04-01T13:13:59;10.30;1.00
20231;DHT22;10274;49.022;9.338;2023-04-01T13:16:31;10.30;1.00
20231;DHT22;10274;49.022;9.338;2023-04-01T13:19:05;10.30;1.00
20231;DHT22;10274;49.022;9.338;2023-04-01T13:21:42;10.40;1.00
20231;DHT22;10274;49.022;9.338;2023-04-01T13:24:30;10.40;1.00
20231;DHT22;10274;49.022;9.338;2023-04-01T13:27:04;10.40;1.00
20231;DHT22;10274;49.022;9.338;2023-04-01T13:29:33;10.50;1.00
20231;DHT22;10274;49.022;9.338;2023-04-01T13:32:10;10.50;1.00
20231;DHT22;10274;49.022;9.338;2023-04-01T13:34:56;10.50;1.00
20231;DHT22;10274;49.022;9.338;2023-04-01T13:37:34;10.50;1.00
20231;DHT22;10274;49.022;9.338;2023-04-01T13:40:19;10.40;1.00
20231;DHT22;10274;49.022;9.338;2023-04-01T13:42:51;10.40;1.00
20231;DHT22;10274;49.022;9.338;2023-04-01T13:45:22;10.40;1.00
20231;DHT22;10274;49.022;9.338;2023-04-01T13:48:04;10.30;1.00
20231;DHT22;10274;49.022;9.338;2023-04-01T13:51:00;10.30;1.00
20231;DHT22;10274;49.022;9.338;2023-04-01T13:56:34;10.30;1.00
20231;DHT22;10274;49.022;9.338;2023-04-01T13:59:24;10.40;1.00
20231;DHT22;10274;49.022;9.338;2023-04-01T14:02:02;10.50;1.00
20231;DHT22;10274;49.022;9.338;2023-04-01T14:04:50;10.50;1.00
20231;DHT22;10274;49.022;9.338;2023-04-01T14:07:32;10.50;1.00
20231;DHT22;10274;49.022;9.338;2023-04-01T14:10:07;10.50;1.00
20231;DHT22;10274;49.022;9.338;2023-04-01T14:12:44;10.50;1.00
20231;DHT22;10274;49.022;9.338;2023-04-01T14:15:36;10.40;1.00
20231;DHT22;10274;49.022;9.338;2023-04-01T14:18:24;10.40;1.00
20231;DHT22;10274;49.022;9.338;2023-04-01T14:21:09;10.40;99.90
20231;DHT22;10274;49.022;9.338;2023-04-01T14:23:47;10.40;1.00
20231;DHT22;10274;49.022;9.338;2023-04-01T14:26:25;10.40;1.00
20231;DHT22;10274;49.022;9.338;2023-04-01T14:29:00;10.30;1.00
20231;DHT22;10274;49.022;9.338;2023-04-01T14:31:37;10.30;1.00
20231;DHT22;10274;49.022;9.338;2023-04-01T14:34:16;10.30;1.00
20231;DHT22;10274;49.022;9.338;2023-04-01T14:36:57;10.30;99.90
20231;DHT22;10274;49.022;9.338;2023-04-01T14:39:43;10.30;1.00
20231;DHT22;10274;49.022;9.338;2023-04-01T14:42:23;10.30;1.00
20231;DHT22;10274;49.022;9.338;2023-04-01T14:45:18;10.30;99.90
20231;DHT22;10274;49.022;9.338;2023-04-01T14:47:50;10.40;93.10
20231;DHT22;10274;49.022;9.338;2023-04-01T14:50:21;10.40;99.90
20231;DHT22;10274;49.022;9.338;2023-04-01T14:52:57;10.30;99.90
20231;DHT22;10274;49.022;9.338;2023-04-01T14:55:31;10.30;99.90
20231;DHT22;10274;49.022;9.338;2023-04-01T14:58:00;10.40;99.90
20231;DHT22;10274;49.022;9.338;2023-04-01T15:00:46;10.30;99.90
20231;DHT22;10274;49.022;9.338;2023-04-01T15:03:19;10.30;99.90
20231;DHT22;10274;49.022;9.338;2023-04-01T15:05:52;10.30;99.90
20231;DHT22;10274;49.022;9.338;2023-04-01T15:08:23;10.30;99.90
20231;DHT22;10274;49.022;9.338;2023-04-01T15:11:16;10.30;99.90
20231;DHT22;10274;49.022;9.338;2023-04-01T15:14:00;10.30;99.90
20231;DHT22;10274;49.022;9.338;2023-04-01T15:16:39;10.40;99.90
20231;DHT22;10274;49.022;9.338;2023-04-01T15:19:14;10.40;99.90
20231;DHT22;10274;49.022;9.338;2023-04-01T15:21:58;10.40;99.90
20231;DHT22;10274;49.022;9.338;2023-04-01T15:24:39;10.40;99.90
20231;DHT22;10274;49.022;9.338;2023-04-01T15:27:29;10.40;99.90
20231;DHT22;10274;49.022;9.338;2023-04-01T15:30:21;10.40;99.90
20231;DHT22;10274;49.022;9.338;2023-04-01T15:33:06;10.50;99.90
20231;DHT22;10274;49.022;9.338;2023-04-01T15:35:43;10.50;99.90
20231;DHT22;10274;49.022;9.338;2023-04-01T15:38:20;10.50;99.90
20231;DHT22;10274;49.022;9.338;2023-04-01T15:40:52;10.50;99.90
20231;DHT22;10274;49.022;9.338;2023-04-01T15:43:27;10.60;99.90
20231;DHT22;10274;49.022;9.338;2023-04-01T15:46:12;10.60;1.00
20231;DHT22;10274;49.022;9.338;2023-04-01T15:48:55;10.50;99.20
20231;DHT22;10274;49.022;9.338;2023-04-01T15:51:38;10.50;85.00
20231;DHT22;10274;49.022;9.338;2023-04-01T15:54:32;10.50;99.90
20231;DHT22;10274;49.022;9.338;2023-04-01T15:57:20;10.50;99.90
20231;DHT22;10274;49.022;9.338;2023-04-01T16:02:47;10.50;99.90
20231;DHT22;10274;49.022;9.338;2023-04-01T16:05:30;10.50;99.90
20231;DHT22;10274;49.022;9.338;2023-04-01T16:08:18;10.50;99.90
20231;DHT22;10274;49.022;9.338;2023-04-01T16:10:56;10.50;99.90
20231;DHT22;10274;49.022;9.338;2023-04-01T16:13:33;10.50;99.90
20231;DHT22;10274;49.022;9.338;2023-04-01T16:16:13;10.50;99.90
20231;DHT22;10274;49.022;9.338;2023-04-01T16:21:44;10.50;99.90
20231;DHT22;10274;49.022;9.338;2023-04-01T16:24:17;10.60;99.90
20231;DHT22;10274;49.022;9.338;2023-04-01T16:26:52;10.70;37.00
20231;DHT22;10274;49.022;9.338;2023-04-01T16:29:26;10.60;99.90
20231;DHT22;10274;49.022;9.338;2023-04-01T16:32:02;10.60;99.90
20231;DHT22;10274;49.022;9.338;2023-04-01T16:34:35;10.60;99.90
20231;DHT22;10274;49.022;9.338;2023-04-01T16:37:07;10.70;11.10
20231;DHT22;10274;49.022;9.338;2023-04-01T16:39:44;10.60;61.30
20231;DHT22;10274;49.022;9.338;2023-04-01T16:42:22;10.60;99.90
20231;DHT22;10274;49.022;9.338;2023-04-01T16:44:55;10.60;99.90
20231;DHT22;10274;49.022;9.338;2023-04-01T16:47:27;10.60;86.90
20231;DHT22;10274;49.022;9.338;2023-04-01T16:50:00;10.60;99.90
20231;DHT22;10274;49.022;9.338;2023-04-01T16:52:48;10.70;1.00
20231;DHT22;10274;49.022;9.338;2023-04-01T16:55:19;10.60;99.90
20231;DHT22;10274;49.022;9.338;2023-04-01T16:57:50;10.60;99.90
20231;DHT22;10274;49.022;9.338;2023-04-01T17:00:24;10.60;1.00
20231;DHT22;10274;49.022;9.338;2023-04-01T17:02:58;10.70;1.00
20231;DHT22;10274;49.022;9.338;2023-04-01T17:05:48;10.70;1.00
20231;DHT22;10274;49.022;9.338;2023-04-01T17:08:26;10.60;1.00
20231;DHT22;10274;49.022;9.338;2023-04-01T17:10:58;10.60;1.00
20231;DHT22;10274;49.022;9.338;2023-04-01T17:13:35;10.60;99.90
20231;DHT22;10274;49.022;9.338;2023-04-01T17:16:26;10.60;99.90
20231;DHT22;10274;49.022;9.338;2023-04-01T17:19:01;10.60;95.70
20231;DHT22;10274;49.022;9.338;2023-04-01T17:21:46;10.60;99.90
20231;DHT22;10274;49.022;9.338;2023-04-01T17:24:27;10.60;99.90
20231;DHT22;10274;49.022;9.338;2023-04-01T17:27:01;10.50;99.90
20231;DHT22;10274;49.022;9.338;2023-04-01T17:29:46;10.60;99.90
20231;DHT22;10274;49.022;9.338;2023-04-01T17:32:27;10.50;99.90
20231;DHT22;10274;49.022;9.338;2023-04-01T17:35:05;10.50;99.90
20231;DHT22;10274;49.022;9.338;2023-04-01T17:37:44;10.50;99.90
20231;DHT22;10274;49.022;9.338;2023-04-01T17:40:26;10.50;99.90
20231;DHT22;10274;49.022;9.338;2023-04-01T17:43:03;10.40;99.90